createdAt,value
2022-08-09T00:00:46.376Z,964.92
2022-08-09T00:04:01.015Z,964.91
2022-08-09T00:05:00.992Z,964.92
2022-08-09T00:06:17.098Z,964.95
2022-08-09T00:07:46.386Z,964.93
2022-08-09T00:08:46.458Z,964.95
2022-08-09T00:09:47.286Z,964.94
2022-08-09T00:11:58.583Z,964.95
2022-08-09T00:12:46.756Z,964.94
2022-08-09T00:13:46.409Z,964.97
2022-08-09T00:14:47.441Z,964.94
2022-08-09T00:15:57.807Z,964.92
2022-08-09T00:16:46.537Z,964.96
2022-08-09T00:18:05.005Z,964.93
2022-08-09T00:18:47.464Z,964.96
2022-08-09T00:19:47.938Z,964.93
2022-08-09T00:20:48.429Z,964.94
2022-08-09T00:21:56.449Z,964.97
2022-08-09T00:22:47.193Z,964.95
2022-08-09T00:23:56.875Z,964.97
2022-08-09T00:25:46.418Z,965
2022-08-09T00:26:46.315Z,965.01
2022-08-09T00:27:47.912Z,964.99
2022-08-09T00:28:52.892Z,964.96
2022-08-09T00:30:10.608Z,964.97
2022-08-09T00:31:58.879Z,964.98
2022-08-09T00:32:46.524Z,964.99
2022-08-09T00:33:49.324Z,964.94
2022-08-09T00:34:46.567Z,964.95
2022-08-09T00:35:46.527Z,964.97
2022-08-09T00:36:46.481Z,964.93
2022-08-09T00:38:46.403Z,964.91
2022-08-09T00:40:09.880Z,964.96
2022-08-09T00:40:52.412Z,964.95
2022-08-09T00:44:08.768Z,964.98
2022-08-09T00:44:08.986Z,964.95
2022-08-09T00:44:09.472Z,964.97
2022-08-09T00:44:46.911Z,964.96
2022-08-09T00:45:46.793Z,965.02
2022-08-09T00:46:56.822Z,964.97
2022-08-09T00:47:46.656Z,964.99
2022-08-09T00:48:47.540Z,964.98
2022-08-09T00:49:52.699Z,965
2022-08-09T00:50:46.537Z,964.98
2022-08-09T00:51:54.685Z,965.01
2022-08-09T00:52:46.499Z,965
2022-08-09T00:53:47.527Z,965.01
2022-08-09T00:54:46.502Z,965.03
2022-08-09T00:56:46.532Z,965.02
2022-08-09T00:58:49.001Z,965.05
2022-08-09T00:59:52.571Z,965.04
2022-08-09T01:01:46.641Z,965.07
2022-08-09T01:02:46.548Z,965.05
2022-08-09T01:03:46.759Z,965.01
2022-08-09T01:04:46.411Z,965
2022-08-09T01:05:51.165Z,964.99
2022-08-09T01:07:59.821Z,965
2022-08-09T01:08:49.064Z,965.01
2022-08-09T01:10:46.558Z,964.98
2022-08-09T01:12:46.680Z,965.01
2022-08-09T01:13:53.631Z,965.05
2022-08-09T01:14:48.291Z,965.04
2022-08-09T01:15:51.932Z,965
2022-08-09T01:16:49.360Z,965.04
2022-08-09T01:17:46.826Z,964.99
2022-08-09T01:18:47.378Z,965.04
2022-08-09T01:19:51.911Z,965.05
2022-08-09T01:20:47.207Z,965.02
2022-08-09T01:21:51.030Z,965.03
2022-08-09T01:22:46.643Z,965.05
2022-08-09T01:24:01.436Z,965.01
2022-08-09T01:24:50.340Z,965
2022-08-09T01:25:48.751Z,965.03
2022-08-09T01:26:46.713Z,965.06
2022-08-09T01:29:55.007Z,965.1
2022-08-09T01:30:51.384Z,965.09
2022-08-09T01:32:30.572Z,965.07
2022-08-09T01:32:46.703Z,965.04
2022-08-09T01:33:46.498Z,965.06
2022-08-09T01:34:46.719Z,965.09
2022-08-09T01:35:46.754Z,965.06
2022-08-09T01:36:46.601Z,965.09
2022-08-09T01:38:06.179Z,965.07
2022-08-09T01:38:46.781Z,965.05
2022-08-09T01:39:46.600Z,965.08
2022-08-09T01:40:52.585Z,965.05
2022-08-09T01:41:53.310Z,965.06
2022-08-09T01:43:51.374Z,965.1
2022-08-09T01:44:46.717Z,965.11
2022-08-09T01:45:47.787Z,965.07
2022-08-09T01:46:46.976Z,965.05
2022-08-09T01:48:48.256Z,965.03
2022-08-09T01:49:48.853Z,965.06
2022-08-09T01:51:53.215Z,965.05
2022-08-09T01:52:46.655Z,965.07
2022-08-09T01:53:46.736Z,965.09
2022-08-09T01:56:47.269Z,965.04
2022-08-09T01:57:50.669Z,965.08
2022-08-09T01:58:48.894Z,965.11
2022-08-09T01:59:51.003Z,965.05
2022-08-09T02:02:46.778Z,965.03
2022-08-09T02:03:47.970Z,965.06
2022-08-09T02:04:46.774Z,965
2022-08-09T02:05:53.796Z,965.02
2022-08-09T02:06:54.495Z,965.06
2022-08-09T02:08:58.203Z,965.07
2022-08-09T02:09:46.710Z,965.1
2022-08-09T02:13:55.566Z,965.13
2022-08-09T02:15:49.720Z,965.11
2022-08-09T02:16:52.962Z,965.1
2022-08-09T02:19:46.677Z,965.11
2022-08-09T02:20:46.789Z,965.13
2022-08-09T02:22:46.682Z,965.16
2022-08-09T02:23:46.605Z,965.14
2022-08-09T02:24:51.917Z,965.13
2022-08-09T02:25:51.286Z,965.14
2022-08-09T02:26:46.885Z,965.16
2022-08-09T02:27:58.419Z,965.15
2022-08-09T02:28:46.813Z,965.18
2022-08-09T02:29:46.613Z,965.19
2022-08-09T02:30:46.875Z,965.17
2022-08-09T02:31:46.689Z,965.18
2022-08-09T02:32:47.675Z,965.2
2022-08-09T02:33:58.619Z,965.21
2022-08-09T02:34:51.726Z,965.16
2022-08-09T02:36:01.138Z,965.15
2022-08-09T02:36:46.863Z,965.21
2022-08-09T02:37:46.842Z,965.18
2022-08-09T02:38:48.909Z,965.17
2022-08-09T02:39:49.710Z,965.2
2022-08-09T02:40:46.779Z,965.23
2022-08-09T02:41:46.806Z,965.18
2022-08-09T02:42:46.772Z,965.15
2022-08-09T02:43:54.436Z,965.21
2022-08-09T02:45:46.746Z,965.09
2022-08-09T02:46:46.992Z,965.22
2022-08-09T02:47:57.874Z,965.21
2022-08-09T02:49:46.713Z,965.2
2022-08-09T02:50:46.611Z,965.16
2022-08-09T02:52:46.720Z,965.17
2022-08-09T02:53:52.855Z,965.22
2022-08-09T02:54:51.333Z,965.18
2022-08-09T02:55:53.792Z,965.17
2022-08-09T02:56:48.801Z,965.18
2022-08-09T02:57:59.825Z,965.13
2022-08-09T02:58:46.807Z,965.12
2022-08-09T02:59:49.859Z,965.14
2022-08-09T03:00:47.965Z,965.12
2022-08-09T03:02:05.091Z,965.16
2022-08-09T03:02:58.803Z,965.15
2022-08-09T03:04:50.659Z,965.18
2022-08-09T03:05:46.962Z,965.16
2022-08-09T03:06:48.732Z,965.14
2022-08-09T03:07:54.870Z,965.15
2022-08-09T03:08:47.461Z,965.17
2022-08-09T03:12:06.874Z,965.16
2022-08-09T03:12:49.419Z,965.17
2022-08-09T03:13:58.402Z,965.16
2022-08-09T03:14:46.848Z,965.13
2022-08-09T03:16:05.072Z,965.14
2022-08-09T03:16:47.802Z,965.16
2022-08-09T03:17:46.959Z,965.15
2022-08-09T03:18:46.920Z,965.16
2022-08-09T03:19:52.906Z,965.14
2022-08-09T03:20:46.862Z,965.11
2022-08-09T03:21:48.587Z,965.14
2022-08-09T03:22:47.324Z,965.1
2022-08-09T03:24:04.130Z,965.12
2022-08-09T03:24:52.547Z,965.11
2022-08-09T03:25:57.162Z,965.1
2022-08-09T03:27:47.164Z,965.09
2022-08-09T03:28:46.878Z,965.07
2022-08-09T03:29:57.533Z,965.06
2022-08-09T03:30:48.930Z,965.08
2022-08-09T03:32:46.987Z,965.06
2022-08-09T03:33:53.725Z,965.07
2022-08-09T03:34:48.069Z,965.08
2022-08-09T03:36:12.159Z,965.07
2022-08-09T03:36:48.018Z,965.08
2022-08-09T03:37:56.748Z,965.06
2022-08-09T03:38:47.018Z,965.08
2022-08-09T03:39:48.530Z,965.1
2022-08-09T03:40:47.004Z,965.09
2022-08-09T03:41:48.475Z,965.05
2022-08-09T03:42:47.026Z,965.06
2022-08-09T03:43:52.003Z,965.08
2022-08-09T03:44:46.911Z,965.11
2022-08-09T03:46:46.902Z,965.15
2022-08-09T03:49:57.897Z,965.14
2022-08-09T03:50:47.043Z,965.17
2022-08-09T03:51:57.824Z,965.18
2022-08-09T03:52:46.929Z,965.19
2022-08-09T03:54:46.948Z,965.21
2022-08-09T03:55:46.964Z,965.26
2022-08-09T03:56:46.942Z,965.25
2022-08-09T03:57:53.765Z,965.24
2022-08-09T03:59:53.135Z,965.25
2022-08-09T04:00:47.783Z,965.26
2022-08-09T04:01:46.924Z,965.25
2022-08-09T04:02:46.842Z,965.27
2022-08-09T04:04:00.697Z,965.29
2022-08-09T04:04:47.844Z,965.28
2022-08-09T04:05:48.529Z,965.29
2022-08-09T04:06:48.967Z,965.3
2022-08-09T04:07:48.056Z,965.33
2022-08-09T04:08:47.006Z,965.32
2022-08-09T04:09:47.720Z,965.29
2022-08-09T04:10:48.045Z,965.34
2022-08-09T04:11:47.173Z,965.3
2022-08-09T04:14:37.881Z,965.34
2022-08-09T04:14:54.326Z,965.33
2022-08-09T04:16:18.937Z,965.36
2022-08-09T04:16:46.951Z,965.37
2022-08-09T04:17:47.480Z,965.36
2022-08-09T04:18:46.974Z,965.38
2022-08-09T04:19:51.341Z,965.35
2022-08-09T04:20:47.016Z,965.37
2022-08-09T04:21:46.977Z,965.34
2022-08-09T04:22:46.884Z,965.4
2022-08-09T04:23:52.479Z,965.39
2022-08-09T04:26:47.150Z,965.42
2022-08-09T04:27:49.250Z,965.39
2022-08-09T04:28:47.272Z,965.44
2022-08-09T04:29:49.769Z,965.42
2022-08-09T04:31:48.014Z,965.43
2022-08-09T04:32:47.201Z,965.45
2022-08-09T04:33:53.334Z,965.47
2022-08-09T04:34:54.250Z,965.44
2022-08-09T04:36:50.174Z,965.46
2022-08-09T04:37:47.113Z,965.48
2022-08-09T04:38:47.032Z,965.47
2022-08-09T04:39:49.317Z,965.49
2022-08-09T04:40:47.072Z,965.48
2022-08-09T04:41:47.044Z,965.52
2022-08-09T04:42:48.409Z,965.5
2022-08-09T04:43:49.906Z,965.51
2022-08-09T04:44:49.032Z,965.53
2022-08-09T04:47:59.601Z,965.54
2022-08-09T04:49:54.012Z,965.52
2022-08-09T04:50:47.052Z,965.53
2022-08-09T04:51:47.148Z,965.55
2022-08-09T04:52:47.150Z,965.54
2022-08-09T04:53:49.213Z,965.56
2022-08-09T04:54:47.127Z,965.57
2022-08-09T04:55:58.566Z,965.56
2022-08-09T04:56:47.230Z,965.57
2022-08-09T04:57:54.571Z,965.56
2022-08-09T04:58:47.086Z,965.59
2022-08-09T04:59:47.440Z,965.62
2022-08-09T05:00:47.267Z,965.61
2022-08-09T05:01:47.107Z,965.66
2022-08-09T05:03:48.180Z,965.67
2022-08-09T05:05:52.371Z,965.66
2022-08-09T05:07:47.135Z,965.7
2022-08-09T05:08:47.973Z,965.74
2022-08-09T05:09:49.619Z,965.73
2022-08-09T05:10:47.010Z,965.75
2022-08-09T05:12:47.078Z,965.76
2022-08-09T05:14:47.005Z,965.73
2022-08-09T05:15:52.433Z,965.75
2022-08-09T05:16:58.636Z,965.74
2022-08-09T05:18:37.200Z,965.75
2022-08-09T05:18:57.838Z,965.76
2022-08-09T05:19:47.267Z,965.78
2022-08-09T05:20:47.023Z,965.73
2022-08-09T05:23:50.811Z,965.76
2022-08-09T05:24:47.620Z,965.77
2022-08-09T05:25:50.773Z,965.78
2022-08-09T05:26:47.548Z,965.81
2022-08-09T05:29:47.108Z,965.82
2022-08-09T05:31:52.118Z,965.81
2022-08-09T05:32:50.727Z,965.86
2022-08-09T05:33:47.053Z,965.87
2022-08-09T05:35:50.130Z,965.89
2022-08-09T05:36:47.526Z,965.88
2022-08-09T05:37:47.551Z,965.9
2022-08-09T05:39:47.378Z,965.92
2022-08-09T05:40:50.439Z,965.9
2022-08-09T05:41:48.413Z,965.91
2022-08-09T05:42:47.318Z,965.95
2022-08-09T05:43:48.913Z,965.97
2022-08-09T05:44:47.768Z,965.99
2022-08-09T05:45:52.848Z,965.98
2022-08-09T05:46:47.248Z,965.99
2022-08-09T05:47:51.933Z,966.03
2022-08-09T05:48:48.701Z,966.02
2022-08-09T05:50:16.788Z,966.03
2022-08-09T05:50:56.861Z,966.02
2022-08-09T05:51:47.336Z,966.04
2022-08-09T05:52:52.212Z,966.03
2022-08-09T05:54:49.093Z,966.05
2022-08-09T05:56:54.736Z,966.03
2022-08-09T05:57:51.430Z,966.02
2022-08-09T05:59:48.392Z,966.03
2022-08-09T06:00:47.227Z,966.01
2022-08-09T06:01:47.144Z,966
2022-08-09T06:03:54.606Z,966.04
2022-08-09T06:04:47.245Z,966.06
2022-08-09T06:05:50.795Z,966.07
2022-08-09T06:06:49.892Z,966.08
2022-08-09T06:07:49.659Z,966.07
2022-08-09T06:08:52.617Z,966.06
2022-08-09T06:09:54.284Z,966.07
2022-08-09T06:10:47.270Z,966.08
2022-08-09T06:11:56.986Z,966.11
2022-08-09T06:12:50.385Z,966.07
2022-08-09T06:13:47.643Z,966.08
2022-08-09T06:14:47.152Z,966.11
2022-08-09T06:15:47.244Z,966.1
2022-08-09T06:16:52.055Z,966.12
2022-08-09T06:17:47.382Z,966.14
2022-08-09T06:18:47.252Z,966.13
2022-08-09T06:20:50.026Z,966.14
2022-08-09T06:21:50.453Z,966.16
2022-08-09T06:22:47.408Z,966.15
2022-08-09T06:23:55.961Z,966.18
2022-08-09T06:25:47.315Z,966.16
2022-08-09T06:26:47.292Z,966.17
2022-08-09T06:28:48.563Z,966.2
2022-08-09T06:29:47.849Z,966.21
2022-08-09T06:30:47.311Z,966.19
2022-08-09T06:32:09.199Z,966.23
2022-08-09T06:32:53.779Z,966.19
2022-08-09T06:34:51.336Z,966.18
2022-08-09T06:35:56.673Z,966.2
2022-08-09T06:37:49.770Z,966.24
2022-08-09T06:39:48.903Z,966.27
2022-08-09T06:40:47.590Z,966.24
2022-08-09T06:42:08.367Z,966.25
2022-08-09T06:43:47.458Z,966.24
2022-08-09T06:44:47.410Z,966.22
2022-08-09T06:46:05.673Z,966.26
2022-08-09T06:46:47.488Z,966.3
2022-08-09T06:47:47.420Z,966.32
2022-08-09T06:50:12.369Z,966.31
2022-08-09T06:50:47.480Z,966.3
2022-08-09T06:52:48.625Z,966.28
2022-08-09T06:53:49.813Z,966.33
2022-08-09T06:55:48.356Z,966.58
2022-08-09T06:56:47.446Z,966.74
2022-08-09T06:58:02.317Z,966.95
2022-08-09T07:00:53.254Z,967.01
2022-08-09T07:00:53.319Z,967.04
2022-08-09T07:00:56.709Z,967.07
2022-08-09T07:01:53.948Z,967.08
2022-08-09T07:02:47.501Z,967.05
2022-08-09T07:03:52.330Z,967.06
2022-08-09T07:04:47.276Z,967.05
2022-08-09T07:05:54.021Z,967.08
2022-08-09T07:06:47.416Z,967.07
2022-08-09T07:07:59.151Z,967.04
2022-08-09T07:08:49.639Z,966.97
2022-08-09T07:09:53.843Z,966.96
2022-08-09T07:10:47.433Z,966.91
2022-08-09T07:11:52.426Z,966.9
2022-08-09T07:12:47.505Z,966.84
2022-08-09T07:14:04.594Z,966.85
2022-08-09T07:14:50.961Z,966.82
2022-08-09T07:15:53.428Z,966.8
2022-08-09T07:16:50.036Z,966.79
2022-08-09T07:17:52.547Z,966.73
2022-08-09T07:18:50.021Z,966.75
2022-08-09T07:20:48.377Z,966.82
2022-08-09T07:21:50.254Z,966.85
2022-08-09T07:22:52.374Z,966.8
2022-08-09T07:23:56.778Z,966.81
2022-08-09T07:24:49.251Z,966.84
2022-08-09T07:25:47.545Z,966.86
2022-08-09T07:26:47.505Z,966.85
2022-08-09T07:27:53.378Z,966.87
2022-08-09T07:29:01.142Z,966.83
2022-08-09T07:32:47.378Z,966.86
2022-08-09T07:33:52.433Z,966.73
2022-08-09T07:34:47.477Z,966.68
2022-08-09T07:35:53.751Z,966.71
2022-08-09T07:37:48.044Z,966.68
2022-08-09T07:38:55.130Z,966.65
2022-08-09T07:39:47.511Z,966.7
2022-08-09T07:41:00.710Z,966.74
2022-08-09T07:41:47.601Z,966.64
2022-08-09T07:42:47.384Z,966.62
2022-08-09T07:43:49.798Z,966.73
2022-08-09T07:44:50.791Z,966.7
2022-08-09T07:46:47.711Z,966.66
2022-08-09T07:47:49.762Z,966.69
2022-08-09T07:48:52.926Z,966.64
2022-08-09T07:50:52.887Z,966.6
2022-08-09T07:52:04.234Z,966.64
2022-08-09T07:52:47.505Z,966.57
2022-08-09T07:54:04.597Z,966.54
2022-08-09T07:54:51.393Z,966.58
2022-08-09T07:56:02.973Z,966.54
2022-08-09T07:56:49.455Z,966.57
2022-08-09T07:57:47.683Z,966.53
2022-08-09T07:58:47.570Z,966.56
2022-08-09T07:59:51.077Z,966.53
2022-08-09T08:00:55.897Z,966.48
2022-08-09T08:01:52.945Z,966.53
2022-08-09T08:02:47.855Z,966.51
2022-08-09T08:03:47.552Z,966.48
2022-08-09T08:05:54.579Z,966.47
2022-08-09T08:06:56.047Z,966.51
2022-08-09T08:08:44.916Z,966.39
2022-08-09T08:09:02.880Z,966.4
2022-08-09T08:09:51.902Z,966.3
2022-08-09T08:10:48.737Z,966.26
2022-08-09T08:12:08.965Z,966.25
2022-08-09T08:12:47.689Z,966.32
2022-08-09T08:13:55.984Z,966.31
2022-08-09T08:14:47.653Z,966.17
2022-08-09T08:15:47.598Z,966.16
2022-08-09T08:16:51.005Z,966.13
2022-08-09T08:17:52.732Z,966.14
2022-08-09T08:18:47.721Z,966.16
2022-08-09T08:20:47.712Z,966.12
2022-08-09T08:21:52.520Z,966.19
2022-08-09T08:22:48.476Z,966.22
2022-08-09T08:23:53.014Z,966.28
2022-08-09T08:24:49.190Z,966.34
2022-08-09T08:25:48.630Z,966.3
2022-08-09T08:27:49.896Z,966.19
2022-08-09T08:28:47.718Z,966.16
2022-08-09T08:29:48.920Z,966.08
2022-08-09T08:30:47.718Z,966.1
2022-08-09T08:32:02.884Z,966.11
2022-08-09T08:32:53.000Z,966.1
2022-08-09T08:33:49.844Z,966.15
2022-08-09T08:34:47.643Z,966.18
2022-08-09T08:35:53.252Z,966.17
2022-08-09T08:36:47.627Z,966.15
2022-08-09T08:38:00.081Z,966.12
2022-08-09T08:38:47.751Z,966.01
2022-08-09T08:39:47.659Z,965.99
2022-08-09T08:40:49.449Z,965.97
2022-08-09T08:41:51.242Z,966.01
2022-08-09T08:42:47.626Z,966.03
2022-08-09T08:43:47.527Z,966.05
2022-08-09T08:45:51.776Z,966.01
2022-08-09T08:46:59.473Z,966.06
2022-08-09T08:47:47.804Z,966.05
2022-08-09T08:48:51.275Z,966.01
2022-08-09T08:50:49.243Z,966.03
2022-08-09T08:51:59.978Z,966.01
2022-08-09T08:52:53.323Z,966.04
2022-08-09T08:54:47.662Z,965.99
2022-08-09T08:55:47.585Z,966.03
2022-08-09T08:56:47.622Z,966.04
2022-08-09T08:57:56.998Z,966
2022-08-09T08:59:49.092Z,966.06
2022-08-09T09:00:47.815Z,966.09
2022-08-09T09:02:49.924Z,966.1
2022-08-09T09:03:49.521Z,966.14
2022-08-09T09:04:48.175Z,966.1
2022-08-09T09:05:59.462Z,966.08
2022-08-09T09:06:47.830Z,966.13
2022-08-09T09:07:47.640Z,966.14
2022-08-09T09:08:52.315Z,966.12
2022-08-09T09:10:47.776Z,966.13
2022-08-09T09:11:47.741Z,966.12
2022-08-09T09:13:54.985Z,966.14
2022-08-09T09:14:47.716Z,966.17
2022-08-09T09:15:49.116Z,966.21
2022-08-09T09:16:47.727Z,966.2
2022-08-09T09:17:48.764Z,966.21
2022-08-09T09:18:52.004Z,966.2
2022-08-09T09:19:47.628Z,966.22
2022-08-09T09:20:47.721Z,966.2
2022-08-09T09:21:47.702Z,966.13
2022-08-09T09:22:47.634Z,966.1
2022-08-09T09:23:48.954Z,966.15
2022-08-09T09:24:47.822Z,966.11
2022-08-09T09:26:02.774Z,966.12
2022-08-09T09:26:47.765Z,966.14
2022-08-09T09:28:04.828Z,966.2
2022-08-09T09:29:02.713Z,966.21
2022-08-09T09:30:09.446Z,966.19
2022-08-09T09:30:47.775Z,966.2
2022-08-09T09:32:04.292Z,966.21
2022-08-09T09:32:47.758Z,966.18
2022-08-09T09:33:47.706Z,966.17
2022-08-09T09:35:48.059Z,966.15
2022-08-09T09:36:53.006Z,966.16
2022-08-09T09:37:47.669Z,966.13
2022-08-09T09:38:47.667Z,966.16
2022-08-09T09:39:55.429Z,966.19
2022-08-09T09:40:47.918Z,966.16
2022-08-09T09:42:47.816Z,966.11
2022-08-09T09:44:10.497Z,966.12
2022-08-09T09:45:57.550Z,966.18
2022-08-09T09:46:51.881Z,966.19
2022-08-09T09:47:56.331Z,966.25
2022-08-09T09:48:47.860Z,966.28
2022-08-09T09:49:50.303Z,966.25
2022-08-09T09:51:51.226Z,966.23
2022-08-09T09:52:52.666Z,966.22
2022-08-09T09:53:57.914Z,966.25
2022-08-09T09:54:48.661Z,966.23
2022-08-09T09:55:47.840Z,966.24
2022-08-09T09:56:53.533Z,966.23
2022-08-09T09:58:01.895Z,966.25
2022-08-09T09:58:47.868Z,966.26
2022-08-09T09:59:47.785Z,966.28
2022-08-09T10:00:52.826Z,966.21
2022-08-09T10:01:47.827Z,966.17
2022-08-09T10:02:47.798Z,966.18
2022-08-09T10:03:56.606Z,966.17
2022-08-09T10:06:01.613Z,966.14
2022-08-09T10:08:01.262Z,966.15
2022-08-09T10:08:54.710Z,966.17
2022-08-09T10:09:48.651Z,966.2
2022-08-09T10:10:47.938Z,966.22
2022-08-09T10:11:54.130Z,966.18
2022-08-09T10:12:48.012Z,966.2
2022-08-09T10:14:48.638Z,966.17
2022-08-09T10:15:50.890Z,966.18
2022-08-09T10:16:55.388Z,966.15
2022-08-09T10:17:51.359Z,966.2
2022-08-09T10:18:51.155Z,966.22
2022-08-09T10:19:52.100Z,966.26
2022-08-09T10:20:48.244Z,966.25
2022-08-09T10:21:48.674Z,966.22
2022-08-09T10:22:47.935Z,966.2
2022-08-09T10:23:47.814Z,966.23
2022-08-09T10:24:47.798Z,966.27
2022-08-09T10:27:56.409Z,966.23
2022-08-09T10:28:48.934Z,966.25
2022-08-09T10:30:29.826Z,966.27
2022-08-09T10:32:04.212Z,966.23
2022-08-09T10:32:28.571Z,966.21
2022-08-09T10:32:47.908Z,966.24
2022-08-09T10:34:09.282Z,966.27
2022-08-09T10:34:47.901Z,966.26
2022-08-09T10:35:48.039Z,966.25
2022-08-09T10:38:55.206Z,966.17
2022-08-09T10:39:49.083Z,966.18
2022-08-09T10:41:48.542Z,966.11
2022-08-09T10:42:48.038Z,966.09
2022-08-09T10:43:58.962Z,966.07
2022-08-09T10:44:47.848Z,966.02
2022-08-09T10:45:49.498Z,966.06
2022-08-09T10:46:55.458Z,966.08
2022-08-09T10:48:13.041Z,966.13
2022-08-09T10:48:48.035Z,966.12
2022-08-09T10:49:50.596Z,966.13
2022-08-09T10:51:48.048Z,966.1
2022-08-09T10:53:54.077Z,966.11
2022-08-09T10:54:48.033Z,966.17
2022-08-09T10:55:55.640Z,966.14
2022-08-09T10:56:47.995Z,966.15
2022-08-09T10:57:48.666Z,966.13
2022-08-09T10:58:49.265Z,966.11
2022-08-09T11:00:57.015Z,966.07
2022-08-09T11:03:51.876Z,966.08
2022-08-09T11:05:59.911Z,966.11
2022-08-09T11:06:48.172Z,966.09
2022-08-09T11:07:54.116Z,966.08
2022-08-09T11:08:51.338Z,966.07
2022-08-09T11:09:48.801Z,966.04
2022-08-09T11:10:53.207Z,966
2022-08-09T11:11:51.732Z,966.01
2022-08-09T11:12:48.050Z,965.99
2022-08-09T11:13:49.714Z,965.98
2022-08-09T11:14:48.021Z,966
2022-08-09T11:15:50.684Z,965.96
2022-08-09T11:16:48.071Z,965.99
2022-08-09T11:18:48.338Z,966.04
2022-08-09T11:20:07.676Z,966.03
2022-08-09T11:20:49.599Z,965.97
2022-08-09T11:21:55.405Z,965.99
2022-08-09T11:22:49.074Z,966.01
2022-08-09T11:24:47.950Z,966
2022-08-09T11:26:52.274Z,965.99
2022-08-09T11:28:03.387Z,966.03
2022-08-09T11:28:54.562Z,966.04
2022-08-09T11:30:00.696Z,965.97
2022-08-09T11:30:48.325Z,965.99
2022-08-09T11:31:50.059Z,966
2022-08-09T11:32:48.133Z,966.04
2022-08-09T11:33:48.077Z,966.06
2022-08-09T11:34:48.342Z,966.08
2022-08-09T11:36:48.071Z,966.06
2022-08-09T11:37:49.777Z,966.04
2022-08-09T11:38:48.117Z,966.07
2022-08-09T11:39:48.039Z,966.05
2022-08-09T11:40:48.083Z,966
2022-08-09T11:41:48.843Z,966.01
2022-08-09T11:42:48.413Z,965.96
2022-08-09T11:43:47.993Z,965.97
2022-08-09T11:44:48.010Z,965.92
2022-08-09T11:45:48.087Z,965.93
2022-08-09T11:46:48.005Z,965.86
2022-08-09T11:47:48.115Z,965.87
2022-08-09T11:48:48.092Z,965.94
2022-08-09T11:50:52.627Z,965.99
2022-08-09T11:50:52.893Z,966
2022-08-09T11:52:38.706Z,966.03
2022-08-09T11:52:53.745Z,966.06
2022-08-09T11:54:00.250Z,966.08
2022-08-09T11:54:48.165Z,966.06
2022-08-09T11:55:53.009Z,966.07
2022-08-09T11:56:48.603Z,966.1
2022-08-09T11:58:01.132Z,966.09
2022-08-09T11:58:50.129Z,966.1
2022-08-09T11:59:48.162Z,966.09
2022-08-09T12:00:48.175Z,966.08
2022-08-09T12:02:01.244Z,966.06
2022-08-09T12:02:51.302Z,966.04
2022-08-09T12:03:56.428Z,966.05
2022-08-09T12:04:48.282Z,966.03
2022-08-09T12:06:49.147Z,966.04
2022-08-09T12:07:48.213Z,966
2022-08-09T12:09:50.453Z,966.04
2022-08-09T12:10:48.261Z,965.97
2022-08-09T12:12:02.848Z,965.92
2022-08-09T12:12:48.152Z,965.86
2022-08-09T12:14:06.826Z,965.83
2022-08-09T12:15:04.558Z,965.85
2022-08-09T12:15:48.526Z,965.91
2022-08-09T12:16:48.214Z,965.86
2022-08-09T12:17:52.015Z,965.87
2022-08-09T12:18:49.085Z,965.89
2022-08-09T12:19:48.093Z,965.91
2022-08-09T12:21:50.125Z,966
2022-08-09T12:22:50.206Z,965.99
2022-08-09T12:24:48.412Z,966.01
2022-08-09T12:25:49.225Z,966.04
2022-08-09T12:28:57.787Z,966.05
2022-08-09T12:28:57.927Z,966.07
2022-08-09T12:29:01.126Z,966.08
2022-08-09T12:29:52.765Z,966.04
2022-08-09T12:30:48.300Z,966.07
2022-08-09T12:32:48.353Z,966.09
2022-08-09T12:33:51.318Z,966.1
2022-08-09T12:34:48.126Z,966.09
2022-08-09T12:35:48.195Z,966.11
2022-08-09T12:36:48.364Z,966.1
2022-08-09T12:37:49.952Z,966.08
2022-08-09T12:39:48.282Z,966.06
2022-08-09T12:40:48.138Z,965.99
2022-08-09T12:41:48.240Z,966.02
2022-08-09T12:42:50.115Z,966.01
2022-08-09T12:44:04.517Z,966
2022-08-09T12:45:59.520Z,966.03
2022-08-09T12:47:50.228Z,966.04
2022-08-09T12:48:48.272Z,966.02
2022-08-09T12:49:51.182Z,965.95
2022-08-09T12:50:48.345Z,965.9
2022-08-09T12:51:52.891Z,965.93
2022-08-09T12:52:58.484Z,965.81
2022-08-09T12:53:52.662Z,965.86
2022-08-09T12:55:00.704Z,965.88
2022-08-09T12:56:11.315Z,965.91
2022-08-09T12:56:50.888Z,965.94
2022-08-09T12:57:48.318Z,965.88
2022-08-09T12:58:52.037Z,965.98
2022-08-09T12:59:58.099Z,966
2022-08-09T13:00:48.501Z,965.86
2022-08-09T13:01:50.086Z,965.83
2022-08-09T13:02:48.418Z,965.89
2022-08-09T13:03:54.317Z,965.91
2022-08-09T13:04:48.366Z,965.98
2022-08-09T13:05:51.008Z,965.95
2022-08-09T13:06:48.430Z,965.97
2022-08-09T13:07:50.519Z,965.94
2022-08-09T13:08:49.178Z,965.9
2022-08-09T13:09:53.143Z,965.92
2022-08-09T13:10:48.842Z,965.94
2022-08-09T13:11:48.490Z,965.9
2022-08-09T13:14:38.545Z,965.86
2022-08-09T13:14:53.288Z,965.87
2022-08-09T13:16:48.392Z,965.86
2022-08-09T13:18:04.022Z,965.85
2022-08-09T13:18:48.434Z,965.79
2022-08-09T13:20:50.377Z,965.76
2022-08-09T13:22:34.541Z,965.8
2022-08-09T13:23:02.389Z,965.81
2022-08-09T13:24:06.408Z,965.84
2022-08-09T13:24:52.969Z,965.86
2022-08-09T13:25:53.083Z,965.78
2022-08-09T13:26:49.638Z,965.72
2022-08-09T13:27:55.500Z,965.73
2022-08-09T13:28:48.512Z,965.76
2022-08-09T13:30:03.345Z,965.71
2022-08-09T13:32:14.687Z,965.73
2022-08-09T13:32:48.734Z,965.75
2022-08-09T13:33:53.400Z,965.71
2022-08-09T13:36:23.994Z,965.66
2022-08-09T13:36:48.472Z,965.69
2022-08-09T13:37:51.572Z,965.66
2022-08-09T13:41:21.471Z,965.71
2022-08-09T13:41:22.039Z,965.7
2022-08-09T13:41:51.746Z,965.67
2022-08-09T13:42:48.463Z,965.62
2022-08-09T13:43:48.409Z,965.61
2022-08-09T13:44:48.579Z,965.62
2022-08-09T13:46:08.343Z,965.63
2022-08-09T13:47:18.373Z,965.62
2022-08-09T13:48:48.582Z,965.59
2022-08-09T13:49:55.926Z,965.55
2022-08-09T13:50:48.428Z,965.58
2022-08-09T13:51:51.409Z,965.55
2022-08-09T13:52:48.586Z,965.57
2022-08-09T13:53:48.499Z,965.56
2022-08-09T13:54:49.027Z,965.59
2022-08-09T13:55:48.524Z,965.55
2022-08-09T13:57:53.154Z,965.59
2022-08-09T13:58:48.436Z,965.6
2022-08-09T13:59:48.556Z,965.64
2022-08-09T14:00:50.675Z,965.61
2022-08-09T14:01:56.857Z,965.6
2022-08-09T14:03:02.597Z,965.59
2022-08-09T14:03:58.231Z,965.56
2022-08-09T14:04:49.366Z,965.59
2022-08-09T14:05:57.657Z,965.62
2022-08-09T14:06:48.609Z,965.63
2022-08-09T14:07:48.367Z,965.65
2022-08-09T14:08:48.562Z,965.66
2022-08-09T14:09:48.495Z,965.6
2022-08-09T14:11:48.417Z,965.53
2022-08-09T14:12:48.395Z,965.54
2022-08-09T14:14:16.852Z,965.52
2022-08-09T14:14:53.653Z,965.48
2022-08-09T14:16:06.436Z,965.49
2022-08-09T14:16:48.514Z,965.48
2022-08-09T14:18:06.913Z,965.4
2022-08-09T14:18:49.864Z,965.38
2022-08-09T14:19:48.593Z,965.43
2022-08-09T14:20:48.837Z,965.42
2022-08-09T14:21:48.409Z,965.41
2022-08-09T14:22:48.423Z,965.38
2022-08-09T14:23:53.551Z,965.42
2022-08-09T14:24:53.568Z,965.41
2022-08-09T14:25:50.653Z,965.4
2022-08-09T14:26:51.111Z,965.41
2022-08-09T14:28:48.464Z,965.39
2022-08-09T14:30:20.355Z,965.4
2022-08-09T14:30:48.655Z,965.42
2022-08-09T14:31:50.343Z,965.35
2022-08-09T14:32:48.452Z,965.33
2022-08-09T14:33:52.192Z,965.41
2022-08-09T14:34:55.455Z,965.43
2022-08-09T14:35:52.479Z,965.45
2022-08-09T14:36:48.832Z,965.53
2022-08-09T14:38:02.201Z,965.54
2022-08-09T14:38:51.196Z,965.51
2022-08-09T14:39:48.814Z,965.47
2022-08-09T14:41:48.617Z,965.41
2022-08-09T14:42:48.586Z,965.44
2022-08-09T14:43:53.261Z,965.39
2022-08-09T14:44:59.701Z,965.37
2022-08-09T14:46:41.027Z,965.36
2022-08-09T14:47:49.532Z,965.4
2022-08-09T14:48:48.572Z,965.44